FW3353 Weather Reports


time (UTC)temp
C
wind
direction
speed
KPH
gust
KPH
rain 1hr
cm
rain 24hr
cm
rain mn
cm
humidity
%
barometer
mb
20260508021024 9 0 0.0 0.0 0.00 0.00 0.00 90 1013.0
20260508020503 9 0 0.0 0.0 0.00 0.00 0.00 89 1013.0
20260508020003 10 0 0.0 0.0 0.00 0.00 0.00 89 1012.9
20260508015503 10 0 0.0 0.0 0.00 0.00 0.00 89 1012.9
20260508015003 10 308 0.0 3.2 0.00 0.00 0.00 89 1012.9
20260508014504 10 308 0.0 3.2 0.00 0.00 0.00 89 1012.9
20260508014003 10 307 1.6 6.4 0.00 0.00 0.00 88 1012.8
20260508013524 10 301 3.2 6.4 0.00 0.00 0.00 88 1012.8
20260508013003 10 293 3.2 6.4 0.00 0.00 0.00 88 1012.9
20260508012524 10 288 1.6 6.4 0.00 0.00 0.00 87 1012.9
20260508012003 10 281 3.2 6.4 0.00 0.00 0.00 87 1012.9
20260508011524 10 280 3.2 6.4 0.00 0.00 0.00 87 1012.9
20260508011003 10 278 3.2 6.4 0.00 0.00 0.00 87 1012.9
20260508010503 10 275 1.6 4.8 0.00 0.00 0.00 87 1012.9
20260508010024 10 275 1.6 4.8 0.00 0.00 0.00 86 1012.9
20260508005503 10 271 1.6 6.4 0.00 0.00 0.00 86 1012.9
20260508005024 10 264 1.6 8.0 0.00 0.00 0.00 86 1013.0
20260508004503 10 264 3.2 8.0 0.00 0.00 0.00 86 1012.9
20260508004003 10 269 1.6 6.4 0.00 0.00 0.00 85 1012.9
20260508003503 10 272 1.6 4.8 0.00 0.00 0.00 85 1012.9
20260508003004 10 267 3.2 11.3 0.00 0.00 0.00 85 1012.9
20260508002503 10 267 3.2 11.3 0.00 0.00 0.00 85 1012.9
20260508002003 10 263 3.2 8.0 0.00 0.00 0.00 84 1012.9
20260508001503 10 259 3.2 8.0 0.00 0.00 0.00 84 1012.9
20260508001003 10 261 3.2 9.7 0.00 0.00 0.00 84 1012.8
20260508000524 10 260 4.8 9.7 0.00 0.00 0.00 84 1012.8
20260508000024 10 259 3.2 8.0 0.00 0.00 0.00 84 1012.8
20260507235524 10 252 3.2 8.0 0.00 0.00 0.00 84 1012.8
20260507235003 10 251 3.2 8.0 0.00 0.00 0.00 83 1012.7
20260507234503 10 249 3.2 8.0 0.00 0.00 0.00 83 1012.7
20260507234003 10 247 3.2 8.0 0.00 0.00 0.00 83 1012.7
20260507233503 10 252 3.2 8.0 0.00 0.00 0.00 84 1012.7
20260507233003 10 261 1.6 4.8 0.00 0.00 0.00 84 1012.6
20260507232524 10 266 1.6 4.8 0.00 0.00 0.00 84 1012.5
20260507232003 10 270 1.6 3.2 0.00 0.00 0.00 84 1012.4
20260507231524 10 271 1.6 3.2 0.00 0.00 0.00 84 1012.3
20260507231003 10 271 1.6 3.2 0.00 0.00 0.00 84 1012.3
20260507230524 10 271 0.0 3.2 0.00 0.00 0.00 84 1012.3
20260507230024 10 271 0.0 1.6 0.00 0.00 0.00 84 1012.2
20260507225503 10 0 0.0 0.0 0.00 0.00 0.00 84 1012.2
20260507225003 10 0 0.0 0.0 0.00 0.00 0.00 84 1012.3
20260507224504 11 0 0.0 0.0 0.00 0.00 0.00 84 1012.2
20260507224003 11 0 0.0 0.0 0.00 0.00 0.00 84 1012.1
20260507223503 11 0 0.0 0.0 0.00 0.00 0.00 84 1012.1
20260507223024 11 0 0.0 0.0 0.00 0.00 0.00 84 1012.1
20260507222503 11 0 0.0 0.0 0.00 0.00 0.00 84 1012.0
20260507222003 11 0 0.0 0.0 0.00 0.00 0.00 84 1012.0
20260507221503 11 0 0.0 0.0 0.00 0.00 0.00 83 1012.1
20260507221003 11 0 0.0 0.0 0.00 0.00 0.00 83 1012.1
20260507220503 11 0 0.0 0.0 0.00 0.00 0.00 83 1012.1
20260507220024 11 0 0.0 0.0 0.00 0.00 0.00 82 1012.1
20260507215503 11 0 0.0 0.0 0.00 0.00 0.00 83 1012.1
20260507215003 11 0 0.0 0.0 0.00 0.00 0.00 82 1012.0
20260507214503 11 0 0.0 0.0 0.00 0.00 0.00 82 1012.0
20260507214003 11 0 0.0 0.0 0.00 0.00 0.00 82 1012.0
20260507213524 11 0 0.0 0.0 0.00 0.00 0.00 82 1011.9
20260507213024 11 0 0.0 0.0 0.00 0.00 0.00 82 1011.9
20260507212503 11 0 0.0 0.0 0.00 0.00 0.00 82 1011.8
20260507212024 11 273 0.0 1.6 0.00 0.00 0.00 81 1011.8
20260507211503 11 273 0.0 1.6 0.00 0.00 0.00 81 1011.8
20260507211003 11 273 0.0 1.6 0.00 0.00 0.00 81 1011.8
20260507210503 12 273 0.0 1.6 0.00 0.00 0.00 81 1011.8
20260507210004 12 273 0.0 1.6 0.00 0.00 0.00 80 1011.8
20260507205503 12 272 1.6 4.8 0.00 0.00 0.00 80 1011.7
20260507205003 12 273 1.6 4.8 0.00 0.00 0.00 80 1011.6
20260507204503 12 280 1.6 6.4 0.00 0.00 0.00 79 1011.6
20260507204003 12 285 1.6 6.4 0.00 0.00 0.00 79 1011.5
20260507203503 12 275 3.2 8.0 0.00 0.00 0.00 79 1011.5
20260507203003 12 264 3.2 8.0 0.00 0.00 0.00 78 1011.4
20260507202503 12 254 3.2 8.0 0.00 0.00 0.00 77 1011.4
20260507202024 12 241 4.8 12.9 0.00 0.00 0.00 76 1011.3
20260507201503 12 231 6.4 19.3 0.00 0.00 0.00 76 1011.2
20260507201003 12 232 4.8 19.3 0.00 0.00 0.00 76 1011.1
20260507200503 12 241 1.6 8.0 0.00 0.00 0.00 76 1011.0
20260507200003 12 242 1.6 3.2 0.00 0.00 0.00 76 1010.9
20260507195503 12 242 1.6 3.2 0.00 0.00 0.00 76 1010.8
20260507195003 12 241 1.6 3.2 0.00 0.00 0.00 76 1010.9
20260507194503 12 241 1.6 6.4 0.00 0.00 0.00 77 1010.9
20260507194003 12 243 3.2 8.0 0.00 0.00 0.00 77 1010.8
20260507193503 12 245 1.6 8.0 0.00 0.00 0.00 78 1010.8
20260507193003 13 229 3.2 8.0 0.00 0.00 0.00 79 1010.7
20260507192503 13 214 3.2 8.0 0.00 0.00 0.00 80 1010.7
20260507192003 13 199 3.2 8.0 0.00 0.00 0.00 80 1010.7
20260507191524 13 203 3.2 8.0 0.00 0.00 0.00 80 1010.7
20260507191024 13 214 3.2 8.0 0.00 0.00 0.00 79 1010.7
20260507190503 13 239 1.6 4.8 0.00 0.00 0.00 79 1010.7
20260507190004 13 233 1.6 4.8 0.00 0.00 0.00 78 1010.6
20260507185503 13 210 3.2 8.0 0.00 0.00 0.00 78 1010.6
20260507185003 13 212 3.2 8.0 0.00 0.00 0.00 78 1010.5
20260507184504 13 208 3.2 6.4 0.00 0.00 0.00 78 1010.5
20260507184003 13 224 3.2 6.4 0.00 0.00 0.00 79 1010.5
20260507183503 13 204 3.2 6.4 0.00 0.00 0.00 79 1010.4
20260507183003 13 208 3.2 6.4 0.00 0.00 0.00 78 1010.4
20260507182503 13 236 3.2 6.4 0.00 0.00 0.00 79 1010.4
20260507182003 13 226 3.2 6.4 0.00 0.00 0.00 79 1010.4
20260507181503 13 207 3.2 6.4 0.00 0.00 0.00 81 1010.4
20260507181003 13 162 3.2 6.4 0.00 0.00 0.00 80 1010.5
20260507180503 13 84 3.2 6.4 0.00 0.00 0.00 79 1010.5
20260507180003 12 84 3.2 6.4 0.00 0.00 0.00 80 1010.5
20260507175503 12 73 4.8 6.4 0.00 0.00 0.00 80 1010.4
20260507175003 12 97 3.2 8.0 0.00 0.00 0.00 80 1010.5
20260507174503 12 146 3.2 8.0 0.00 0.00 0.00 79 1010.5
20260507174024 12 295 1.6 6.4 0.00 0.00 0.00 79 1010.5
20260507173524 12 296 1.6 4.8 0.00 0.00 0.00 79 1010.7
20260507173024 12 289 0.0 4.8 0.00 0.00 0.00 79 1010.6
20260507172503 12 0 0.0 0.0 0.00 0.00 0.00 79 1010.6
20260507172003 12 285 0.0 3.2 0.00 0.00 0.00 81 1010.7
20260507171503 12 281 0.0 3.2 0.00 0.00 0.00 82 1010.7
20260507171003 12 277 0.0 1.6 0.00 0.00 0.00 81 1010.7
20260507170503 12 276 0.0 1.6 0.00 0.00 0.00 81 1010.6
20260507170003 12 271 1.6 9.7 0.00 0.00 0.00 81 1010.7
20260507165503 12 258 3.2 9.7 0.00 0.00 0.00 82 1010.8
20260507165024 12 224 4.8 12.9 0.00 0.00 0.00 84 1010.7
20260507164503 12 214 6.4 12.9 0.00 0.00 0.00 84 1010.8
20260507164003 13 202 4.8 11.3 0.00 0.00 0.00 82 1010.7
20260507163503 13 191 6.4 12.9 0.00 0.00 0.00 82 1010.6
20260507163003 13 181 6.4 14.5 0.00 0.00 0.00 81 1010.5
20260507162503 13 162 6.4 14.5 0.00 0.00 0.00 80 1010.6
20260507162003 13 154 8.0 16.1 0.00 0.00 0.00 79 1010.5
20260507161524 13 158 8.0 17.7 0.00 0.00 0.00 78 1010.5
20260507161003 13 180 8.0 17.7 0.00 0.00 0.00 77 1010.6
20260507160503 14 201 8.0 16.1 0.00 0.00 0.00 77 1010.5
20260507160003 14 209 6.4 14.5 0.00 0.00 0.00 77 1010.6
20260507155503 13 207 6.4 12.9 0.00 0.00 0.00 77 1010.6
20260507155003 13 199 6.4 12.9 0.00 0.00 0.00 77 1010.6
20260507154503 13 193 4.8 12.9 0.00 0.00 0.00 78 1010.7
20260507154024 13 185 6.4 12.9 0.00 0.00 0.00 79 1010.7
20260507153504 12 176 6.4 17.7 0.00 0.00 0.00 80 1010.7
20260507153003 12 187 6.4 17.7 0.00 0.00 0.00 80 1010.7
20260507152503 12 205 6.4 14.5 0.00 0.00 0.00 80 1010.7
20260507152003 12 195 4.8 14.5 0.00 0.00 0.00 81 1010.8
20260507151503 12 166 4.8 12.9 0.00 0.00 0.00 82 1010.8
20260507151024 12 167 6.4 14.5 0.00 0.00 0.00 82 1010.9
20260507150524 12 178 6.4 14.5 0.00 0.00 0.00 82 1010.9
20260507150024 12 172 8.0 17.7 0.00 0.00 0.00 82 1011.0
20260507145503 12 164 8.0 19.3 0.00 0.00 0.00 82 1010.9
20260507145003 12 169 8.0 19.3 0.00 0.00 0.00 82 1011.0
20260507144503 12 168 8.0 19.3 0.00 0.00 0.00 82 1011.0
20260507144003 12 160 8.0 19.3 0.00 0.00 0.00 82 1011.1
20260507143503 12 150 8.0 17.7 0.00 0.00 0.00 81 1011.2
20260507143025 12 159 8.0 17.7 0.00 0.00 0.00 81 1011.1
20260507142524 12 167 8.0 17.7 0.00 0.00 0.00 81 1011.2
20260507142003 12 147 8.0 19.3 0.00 0.00 0.00 81 1011.3
20260507141524 12 141 8.0 19.3 0.00 0.00 0.00 81 1011.3
20260507141024 12 137 8.0 19.3 0.00 0.00 0.00 81 1011.4
20260507140503 12 155 8.0 19.3 0.00 0.00 0.00 81 1011.4
20260507140003 12 162 8.0 19.3 0.00 0.00 0.00 81 1011.4
20260507135524 12 151 9.7 22.5 0.00 0.00 0.00 81 1011.5
20260507135003 12 152 9.7 22.5 0.00 0.00 0.00 80 1011.4
20260507134503 12 150 9.7 24.1 0.00 0.00 0.00 79 1011.5
20260507134004 12 148 9.7 24.1 0.00 0.00 0.00 79 1011.4
20260507133503 12 144 9.7 24.1 0.00 0.00 0.00 78 1011.4
20260507133003 12 141 9.7 24.1 0.00 0.00 0.00 76 1011.3
20260507132503 12 141 9.7 20.9 0.00 0.00 0.00 75 1011.4
20260507132003 12 141 11.3 20.9 0.00 0.00 0.00 74 1011.4
20260507131503 12 136 11.3 20.9 0.00 0.00 0.00 75 1011.5
20260507131024 12 135 9.7 20.9 0.00 0.00 0.00 74 1011.5
20260507130503 13 148 9.7 24.1 0.00 0.00 0.00 73 1011.5
20260507130004 13 151 11.3 25.7 0.00 0.00 0.00 73 1011.5
20260507125503 12 140 12.9 25.7 0.00 0.00 0.00 72 1011.5
20260507125004 13 132 14.5 24.1 0.00 0.00 0.00 72 1011.6
20260507124504 13 126 12.9 24.1 0.00 0.00 0.00 72 1011.6
20260507124003 13 132 9.7 24.1 0.00 0.00 0.00 67 1011.6
20260507123503 13 144 9.7 20.9 0.00 0.00 0.00 71 1011.6
20260507123003 13 140 9.7 20.9 0.00 0.00 0.00 70 1011.7
20260507122503 13 159 9.7 20.9 0.00 0.00 0.00 71 1011.7
20260507122024 13 189 6.4 20.9 0.00 0.00 0.00 71 1011.8
20260507121503 13 215 6.4 19.3 0.00 0.00 0.00 70 1011.8
20260507121003 13 213 9.7 19.3 0.00 0.00 0.00 70 1011.8
20260507120524 13 214 9.7 19.3 0.00 0.00 0.00 69 1011.9
20260507120004 13 219 6.4 17.7 0.00 0.00 0.00 70 1011.9
20260507115503 13 212 8.0 16.1 0.00 0.00 0.00 72 1011.8
20260507115003 13 199 9.7 24.1 0.00 0.00 0.00 71 1011.8
20260507114524 13 205 9.7 24.1 0.00 0.00 0.00 71 1011.8
20260507114003 13 218 8.0 22.5 0.00 0.00 0.00 73 1011.8
20260507113503 13 215 11.3 22.5 0.00 0.00 0.00 72 1011.8
20260507113004 13 206 11.3 20.9 0.00 0.00 0.00 73 1011.8
20260507112503 13 200 9.7 20.9 0.00 0.00 0.00 73 1011.8
20260507112003 13 203 9.7 20.9 0.00 0.00 0.00 73 1011.9
20260507111504 13 209 8.0 19.3 0.00 0.00 0.00 73 1011.9
20260507111003 13 206 8.0 16.1 0.00 0.00 0.00 75 1011.9
20260507110503 12 200 8.0 16.1 0.00 0.00 0.00 76 1012.0
20260507110004 12 209 6.4 16.1 0.00 0.00 0.00 77 1012.0
20260507105504 12 205 6.4 14.5 0.00 0.00 0.00 77 1012.0
20260507105004 12 210 6.4 16.1 0.00 0.00 0.00 78 1012.1
20260507104504 12 216 8.0 16.1 0.00 0.00 0.00 78 1012.1
20260507104004 12 209 8.0 14.5 0.00 0.00 0.00 78 1012.1
20260507103503 12 209 8.0 16.1 0.00 0.00 0.00 79 1012.1
20260507103003 12 210 6.4 16.1 0.00 0.00 0.00 79 1012.2
20260507102503 12 202 6.4 14.5 0.00 0.00 0.00 80 1012.1
20260507102003 12 202 4.8 14.5 0.00 0.00 0.00 80 1012.2
20260507101503 12 213 6.4 14.5 0.00 0.00 0.00 80 1012.2
20260507101003 12 226 4.8 12.9 0.00 0.00 0.00 80 1012.2
20260507100503 11 216 4.8 9.7 0.00 0.00 0.00 81 1012.2
20260507100024 11 190 4.8 11.3 0.00 0.00 0.00 81 1012.3
20260507095503 11 209 6.4 11.3 0.00 0.00 0.00 81 1012.2
20260507095024 11 227 6.4 14.5 0.00 0.00 0.00 81 1012.2
20260507094503 11 226 6.4 14.5 0.00 0.00 0.00 82 1012.2
20260507094003 11 202 6.4 12.9 0.00 0.00 0.00 82 1012.3
20260507093525 11 203 6.4 11.3 0.00 0.00 0.00 81 1012.3
20260507093003 11 222 6.4 12.9 0.00 0.00 0.00 82 1012.3
20260507092503 11 218 6.4 14.5 0.00 0.00 0.00 81 1012.3
20260507092003 11 209 4.8 14.5 0.00 0.00 0.00 81 1012.3
20260507091524 11 218 4.8 12.9 0.00 0.00 0.00 82 1012.3
20260507091003 11 235 4.8 11.3 0.00 0.00 0.00 82 1012.3
20260507090503 11 227 4.8 11.3 0.00 0.00 0.00 83 1012.3
20260507090004 11 220 6.4 16.1 0.00 0.00 0.00 83 1012.4
20260507085503 11 221 8.0 16.1 0.00 0.00 0.00 83 1012.4
20260507085024 11 221 8.0 16.1 0.00 0.00 0.00 83 1012.4
20260507084503 11 221 8.0 16.1 0.00 0.00 0.00 83 1012.4
20260507084003 11 219 4.8 14.5 0.00 0.00 0.00 83 1012.3
20260507083503 10 227 3.2 11.3 0.00 0.00 0.00 84 1012.3
20260507083004 10 229 4.8 12.9 0.00 0.00 0.00 84 1012.4
20260507082503 10 228 4.8 12.9 0.00 0.00 0.00 84 1012.3
20260507082024 10 229 4.8 12.9 0.00 0.00 0.00 85 1012.4
20260507081503 10 229 4.8 12.9 0.00 0.00 0.00 85 1012.3
20260507081003 10 230 4.8 9.7 0.00 0.00 0.00 85 1012.4
20260507080503 10 224 6.4 11.3 0.00 0.00 0.00 85 1012.4
20260507080003 10 232 6.4 11.3 0.00 0.00 0.00 85 1012.4
20260507075503 10 234 6.4 14.5 0.00 0.00 0.00 85 1012.3
20260507075003 10 229 4.8 14.5 0.00 0.00 0.00 85 1012.3
20260507074524 10 242 3.2 11.3 0.00 0.00 0.00 86 1012.3
20260507074024 10 243 4.8 11.3 0.00 0.00 0.00 86 1012.3
20260507073524 10 239 6.4 11.3 0.00 0.00 0.00 86 1012.3
20260507073003 10 242 4.8 9.7 0.00 0.00 0.00 86 1012.3
20260507072524 10 253 3.2 8.0 0.00 0.00 0.00 86 1012.3
20260507072003 10 257 4.8 9.7 0.00 0.00 0.00 86 1012.2
20260507071504 10 253 3.2 9.7 0.00 0.00 0.00 86 1012.2
20260507071003 10 249 1.6 6.4 0.00 0.00 0.00 86 1012.2
20260507070524 10 247 1.6 4.8 0.00 0.00 0.00 87 1012.2
20260507070005 10 247 1.6 6.4 0.00 0.00 0.00 86 1012.2
20260507065503 10 249 1.6 6.4 0.00 0.00 0.00 86 1012.2
20260507065003 10 251 1.6 6.4 0.00 0.00 0.00 87 1012.2
20260507064503 9 252 1.6 4.8 0.00 0.00 0.00 87 1012.2
20260507064024 9 253 1.6 4.8 0.00 0.00 0.00 87 1012.2
20260507063503 9 254 1.6 4.8 0.00 0.00 0.00 87 1012.2
20260507063003 9 255 1.6 4.8 0.00 0.00 0.00 87 1012.2
20260507062503 9 255 1.6 4.8 0.00 0.00 0.00 87 1012.2
20260507062003 9 256 0.0 3.2 0.00 0.00 0.00 87 1012.1
20260507061503 9 256 1.6 3.2 0.00 0.00 0.00 87 1012.1
20260507061003 9 256 1.6 3.2 0.00 0.00 0.00 87 1012.2
20260507060503 9 256 0.0 3.2 0.00 0.00 0.00 88 1012.2
20260507060003 9 256 0.0 3.2 0.00 0.00 0.00 88 1012.1
20260507055503 9 256 0.0 3.2 0.00 0.00 0.00 88 1012.1
20260507055003 9 256 0.0 3.2 0.00 0.00 0.00 88 1012.1
20260507054503 9 255 0.0 3.2 0.00 0.00 0.00 88 1012.1
20260507054003 8 0 0.0 0.0 0.00 0.00 0.00 88 1012.1
20260507053503 8 0 0.0 0.0 0.00 0.00 0.00 88 1012.0
20260507053004 8 0 0.0 0.0 0.00 0.00 0.00 88 1012.0
20260507052503 8 0 0.0 0.0 0.00 0.00 0.00 88 1012.0
20260507052003 8 0 0.0 0.0 0.00 0.00 0.00 88 1011.9
20260507051524 8 0 0.0 0.0 0.00 0.00 0.00 88 1012.0
20260507051003 8 0 0.0 0.0 0.00 0.00 0.00 88 1011.9
20260507050503 8 256 0.0 1.6 0.00 0.00 0.00 88 1011.9
20260507050024 8 255 1.6 4.8 0.00 0.00 0.00 88 1011.9
20260507045503 8 254 1.6 4.8 0.00 0.00 0.00 88 1011.9
20260507045003 8 254 0.0 3.2 0.00 0.00 0.00 88 1011.9
20260507044503 8 254 0.0 3.2 0.00 0.00 0.00 87 1011.9
20260507044003 8 246 1.6 4.8 0.00 0.00 0.00 87 1011.9
20260507043503 8 241 1.6 6.4 0.00 0.00 0.00 87 1011.9
20260507043003 8 238 1.6 6.4 0.00 0.00 0.00 87 1011.8
20260507042503 8 239 1.6 6.4 0.00 0.00 0.00 87 1011.8
20260507042003 8 248 1.6 6.4 0.00 0.00 0.00 87 1011.7
20260507041503 8 264 0.0 4.8 0.00 0.00 0.00 87 1011.7
20260507041003 9 265 0.0 4.8 0.00 0.00 0.00 87 1011.7
20260507040503 9 265 0.0 1.6 0.00 0.00 0.00 87 1011.7
20260507040003 9 265 0.0 1.6 0.00 0.00 0.00 87 1011.6
20260507035503 9 265 0.0 1.6 0.00 0.00 0.00 87 1011.7
20260507035003 9 265 0.0 3.2 0.00 0.00 0.00 87 1011.7
20260507034524 9 265 1.6 4.8 0.00 0.00 0.00 86 1011.7
20260507034003 9 265 1.6 4.8 0.00 0.00 0.00 86 1011.6
20260507033503 9 266 0.0 3.2 0.00 0.00 0.00 86 1011.7
20260507033024 9 266 1.6 4.8 0.00 0.00 0.00 86 1011.6
20260507032503 9 263 1.6 4.8 0.00 0.00 0.00 86 1011.7
20260507032003 9 261 1.6 6.4 0.00 0.00 0.00 86 1011.7
20260507031503 9 260 1.6 8.0 0.00 0.00 0.00 86 1011.7
20260507031024 9 260 0.0 8.0 0.00 0.00 0.00 86 1011.7
20260507030503 9 259 0.0 1.6 0.00 0.00 0.00 86 1011.6
20260507030003 9 259 0.0 1.6 0.00 0.00 0.00 85 1011.7
20260507025524 9 259 1.6 4.8 0.00 0.00 0.00 85 1011.7
20260507025024 9 259 1.6 4.8 0.00 0.00 0.00 85 1011.7
20260507024503 9 245 1.6 6.4 0.00 0.00 0.00 85 1011.7
20260507024024 9 243 1.6 6.4 0.00 0.00 0.00 85 1011.8
20260507023503 9 246 1.6 4.8 0.00 0.00 0.00 85 1011.8
20260507023003 9 247 1.6 4.8 0.00 0.00 0.00 85 1011.8
20260507022524 10 247 1.6 4.8 0.00 0.00 0.00 85 1011.7
20260507022003 9 248 1.6 4.8 0.00 0.00 0.00 85 1011.7
20260507021503 9 254 1.6 4.8 0.00 0.00 0.00 85 1011.7